Terminal Aerodrome Forecast
Issued by NWS

Home | Current Version | Previous Version | Text Only | Print | Product List | Glossary On
Versions: 1 2 3 4 5 6 7 8 9 10 11 12
000
FTUS43 KFGF 192327
TAFBJI
TAF
KBJI 192327Z 2000/2024 13014KT P6SM BKN140
     FM200600 14011KT P6SM OVC015
     FM201700 16009KT 2SM BR VCSH OVC010
     FM202300 25011KT P6SM BKN008=

USA.gov is the U.S. government's official web portal to all federal, state and local government web resources and services.